Terminal Aerodrome Forecast
Issued by NWS Sioux Falls, SD

Home | Current Version | Previous Version | Graphics & Text | Print | Product List | Glossary Off
Versions: 1 2 3 4 5 6 7 8 9 10 11 12

000
FTUS43 KFSD 181700
TAFHON
TAF
KHON 181729Z 1818/1918 16024G33KT P6SM FEW200
     FM190100 16019G26KT P6SM SCT200
     FM190700 18017G25KT P6SM BKN120
     FM191300 33012G18KT P6SM SCT060 BKN120=

USA.gov is the U.S. government's official web portal to all federal, state and local government web resources and services.